Auchterarder, United Kingdom
Current Conditions -  °F | °C
As of 12:20 PM on Friday 28 Nov 2014 (Local Time) from EGPH Reporting Station
Broken Clouds Broken Clouds  
Wind Chill: 50°   Ceiling: 1100
Heat Index: 50°   Visibility: 4mi
Dew Point: 48°   Wind: 5mph
Humidity: 94%   Direction: 70°ENE
Pressure: 29.8"   Gusts: NA
Location:  56.3°N, 3.71°W
Report Text: EGPH 281220Z 07004KT 7000 BKN011 10/09 Q1009
Loading
Personal Weather Stations






























Interactive Weather Map New forecast layout! Learn more

10-Day Weather Forecast

Advertisements
Track Severe Weather on mobile